sensor_id;sensor_type;location;lat;lon;timestamp;P1;durP1;ratioP1;P2;durP2;ratioP2
20290;SDS011;10304;51.074;13.754;2024-01-30T00:00:02;24.15;;;15.15;;
20290;SDS011;10304;51.074;13.754;2024-01-30T00:02:30;24.73;;;14.90;;
20290;SDS011;10304;51.074;13.754;2024-01-30T00:04:58;25.70;;;14.93;;
20290;SDS011;10304;51.074;13.754;2024-01-30T00:07:25;22.92;;;14.45;;
20290;SDS011;10304;51.074;13.754;2024-01-30T00:09:52;25.50;;;14.43;;
20290;SDS011;10304;51.074;13.754;2024-01-30T00:12:18;23.90;;;14.40;;
20290;SDS011;10304;51.074;13.754;2024-01-30T00:14:45;22.52;;;13.55;;
20290;SDS011;10304;51.074;13.754;2024-01-30T00:17:12;22.73;;;14.07;;
20290;SDS011;10304;51.074;13.754;2024-01-30T00:19:39;24.90;;;14.20;;
20290;SDS011;10304;51.074;13.754;2024-01-30T00:22:06;24.67;;;14.82;;
20290;SDS011;10304;51.074;13.754;2024-01-30T00:24:33;21.83;;;14.20;;
20290;SDS011;10304;51.074;13.754;2024-01-30T00:27:00;26.20;;;15.00;;
20290;SDS011;10304;51.074;13.754;2024-01-30T00:29:27;23.30;;;14.95;;
20290;SDS011;10304;51.074;13.754;2024-01-30T00:31:57;24.65;;;14.90;;
20290;SDS011;10304;51.074;13.754;2024-01-30T00:34:23;22.15;;;13.43;;
20290;SDS011;10304;51.074;13.754;2024-01-30T00:36:50;26.50;;;15.18;;
20290;SDS011;10304;51.074;13.754;2024-01-30T00:39:17;28.15;;;14.95;;
20290;SDS011;10304;51.074;13.754;2024-01-30T00:41:45;24.05;;;13.77;;
20290;SDS011;10304;51.074;13.754;2024-01-30T00:44:12;23.52;;;14.82;;
20290;SDS011;10304;51.074;13.754;2024-01-30T00:46:39;26.10;;;14.30;;
20290;SDS011;10304;51.074;13.754;2024-01-30T00:49:06;24.23;;;14.30;;
20290;SDS011;10304;51.074;13.754;2024-01-30T00:51:33;19.95;;;13.95;;
20290;SDS011;10304;51.074;13.754;2024-01-30T00:53:59;21.98;;;13.68;;
20290;SDS011;10304;51.074;13.754;2024-01-30T00:56:26;22.55;;;13.75;;
20290;SDS011;10304;51.074;13.754;2024-01-30T00:58:53;22.83;;;15.32;;
20290;SDS011;10304;51.074;13.754;2024-01-30T01:01:20;27.15;;;14.43;;
20290;SDS011;10304;51.074;13.754;2024-01-30T01:03:47;21.77;;;13.90;;
20290;SDS011;10304;51.074;13.754;2024-01-30T01:06:15;21.60;;;14.38;;
20290;SDS011;10304;51.074;13.754;2024-01-30T01:08:42;21.98;;;13.95;;
20290;SDS011;10304;51.074;13.754;2024-01-30T01:11:08;26.42;;;14.55;;
20290;SDS011;10304;51.074;13.754;2024-01-30T01:13:35;23.50;;;14.35;;
20290;SDS011;10304;51.074;13.754;2024-01-30T01:16:02;22.13;;;13.50;;
20290;SDS011;10304;51.074;13.754;2024-01-30T01:18:30;23.17;;;13.95;;
20290;SDS011;10304;51.074;13.754;2024-01-30T01:20:57;22.65;;;14.43;;
20290;SDS011;10304;51.074;13.754;2024-01-30T01:23:24;22.02;;;13.32;;
20290;SDS011;10304;51.074;13.754;2024-01-30T01:25:50;21.73;;;13.15;;
20290;SDS011;10304;51.074;13.754;2024-01-30T01:28:17;22.67;;;14.05;;
20290;SDS011;10304;51.074;13.754;2024-01-30T01:30:45;22.40;;;13.88;;
20290;SDS011;10304;51.074;13.754;2024-01-30T01:33:12;23.95;;;14.40;;
20290;SDS011;10304;51.074;13.754;2024-01-30T01:35:41;22.02;;;13.50;;
20290;SDS011;10304;51.074;13.754;2024-01-30T01:38:07;23.00;;;13.27;;
20290;SDS011;10304;51.074;13.754;2024-01-30T01:40:34;21.00;;;13.23;;
20290;SDS011;10304;51.074;13.754;2024-01-30T01:43:03;22.73;;;12.93;;
20290;SDS011;10304;51.074;13.754;2024-01-30T01:45:31;20.10;;;13.40;;
20290;SDS011;10304;51.074;13.754;2024-01-30T01:47:58;23.63;;;14.35;;
20290;SDS011;10304;51.074;13.754;2024-01-30T01:50:25;21.85;;;12.90;;
20290;SDS011;10304;51.074;13.754;2024-01-30T01:52:52;20.65;;;13.80;;
20290;SDS011;10304;51.074;13.754;2024-01-30T01:55:20;21.42;;;13.13;;
20290;SDS011;10304;51.074;13.754;2024-01-30T01:57:48;23.40;;;14.05;;
20290;SDS011;10304;51.074;13.754;2024-01-30T02:00:15;22.25;;;13.63;;
20290;SDS011;10304;51.074;13.754;2024-01-30T02:02:43;22.20;;;12.90;;
20290;SDS011;10304;51.074;13.754;2024-01-30T02:05:12;23.73;;;13.98;;
20290;SDS011;10304;51.074;13.754;2024-01-30T02:07:39;23.55;;;13.73;;
20290;SDS011;10304;51.074;13.754;2024-01-30T02:10:07;19.80;;;13.35;;
20290;SDS011;10304;51.074;13.754;2024-01-30T02:12:36;21.30;;;13.00;;
20290;SDS011;10304;51.074;13.754;2024-01-30T02:15:02;24.60;;;13.32;;
20290;SDS011;10304;51.074;13.754;2024-01-30T02:17:31;23.42;;;12.40;;
20290;SDS011;10304;51.074;13.754;2024-01-30T02:19:57;21.95;;;13.60;;
20290;SDS011;10304;51.074;13.754;2024-01-30T02:22:25;18.98;;;12.88;;
20290;SDS011;10304;51.074;13.754;2024-01-30T02:24:52;23.73;;;13.63;;
20290;SDS011;10304;51.074;13.754;2024-01-30T02:27:18;22.90;;;13.50;;
20290;SDS011;10304;51.074;13.754;2024-01-30T02:29:45;22.92;;;13.30;;
20290;SDS011;10304;51.074;13.754;2024-01-30T02:32:12;23.45;;;13.63;;
20290;SDS011;10304;51.074;13.754;2024-01-30T02:34:39;22.70;;;13.35;;
20290;SDS011;10304;51.074;13.754;2024-01-30T02:37:05;22.70;;;14.32;;
20290;SDS011;10304;51.074;13.754;2024-01-30T02:39:32;22.00;;;13.73;;
20290;SDS011;10304;51.074;13.754;2024-01-30T02:41:59;22.60;;;12.95;;
20290;SDS011;10304;51.074;13.754;2024-01-30T02:44:26;20.85;;;13.88;;
20290;SDS011;10304;51.074;13.754;2024-01-30T02:46:52;20.58;;;13.68;;
20290;SDS011;10304;51.074;13.754;2024-01-30T02:49:20;22.52;;;14.18;;
20290;SDS011;10304;51.074;13.754;2024-01-30T02:51:48;23.88;;;13.10;;
20290;SDS011;10304;51.074;13.754;2024-01-30T02:54:15;22.15;;;13.32;;
20290;SDS011;10304;51.074;13.754;2024-01-30T02:56:41;22.50;;;13.65;;
20290;SDS011;10304;51.074;13.754;2024-01-30T02:59:08;22.65;;;14.45;;
20290;SDS011;10304;51.074;13.754;2024-01-30T03:01:42;22.20;;;14.35;;
20290;SDS011;10304;51.074;13.754;2024-01-30T03:04:12;21.83;;;14.02;;
20290;SDS011;10304;51.074;13.754;2024-01-30T03:06:44;27.50;;;15.45;;
20290;SDS011;10304;51.074;13.754;2024-01-30T03:09:12;21.33;;;13.35;;
20290;SDS011;10304;51.074;13.754;2024-01-30T03:11:39;26.48;;;13.88;;
20290;SDS011;10304;51.074;13.754;2024-01-30T03:14:06;24.00;;;13.90;;
20290;SDS011;10304;51.074;13.754;2024-01-30T03:16:34;24.02;;;14.07;;
20290;SDS011;10304;51.074;13.754;2024-01-30T03:19:00;26.05;;;14.43;;
20290;SDS011;10304;51.074;13.754;2024-01-30T03:21:29;25.02;;;14.15;;
20290;SDS011;10304;51.074;13.754;2024-01-30T03:23:55;23.10;;;14.23;;
20290;SDS011;10304;51.074;13.754;2024-01-30T03:26:22;26.13;;;14.15;;
20290;SDS011;10304;51.074;13.754;2024-01-30T03:28:49;23.05;;;13.98;;
20290;SDS011;10304;51.074;13.754;2024-01-30T03:31:16;24.13;;;14.30;;
20290;SDS011;10304;51.074;13.754;2024-01-30T03:33:43;23.02;;;14.23;;
20290;SDS011;10304;51.074;13.754;2024-01-30T03:36:10;24.10;;;14.63;;
20290;SDS011;10304;51.074;13.754;2024-01-30T03:38:37;22.55;;;14.07;;
20290;SDS011;10304;51.074;13.754;2024-01-30T03:41:07;24.92;;;13.95;;
20290;SDS011;10304;51.074;13.754;2024-01-30T03:43:34;21.63;;;13.57;;
20290;SDS011;10304;51.074;13.754;2024-01-30T03:46:02;23.40;;;13.70;;
20290;SDS011;10304;51.074;13.754;2024-01-30T03:48:29;27.85;;;14.30;;
20290;SDS011;10304;51.074;13.754;2024-01-30T03:50:56;25.05;;;13.75;;
20290;SDS011;10304;51.074;13.754;2024-01-30T03:53:22;26.05;;;14.50;;
20290;SDS011;10304;51.074;13.754;2024-01-30T03:55:49;21.25;;;14.38;;
20290;SDS011;10304;51.074;13.754;2024-01-30T03:58:16;27.05;;;13.98;;
20290;SDS011;10304;51.074;13.754;2024-01-30T04:00:43;22.67;;;13.70;;
20290;SDS011;10304;51.074;13.754;2024-01-30T04:03:09;25.45;;;14.85;;
20290;SDS011;10304;51.074;13.754;2024-01-30T04:05:36;25.30;;;13.93;;
20290;SDS011;10304;51.074;13.754;2024-01-30T04:08:03;21.02;;;12.82;;
20290;SDS011;10304;51.074;13.754;2024-01-30T04:10:30;22.50;;;14.18;;
20290;SDS011;10304;51.074;13.754;2024-01-30T04:12:57;21.17;;;13.43;;
20290;SDS011;10304;51.074;13.754;2024-01-30T04:15:24;25.33;;;13.88;;
20290;SDS011;10304;51.074;13.754;2024-01-30T04:17:50;26.50;;;13.93;;
20290;SDS011;10304;51.074;13.754;2024-01-30T04:20:17;22.98;;;13.35;;
20290;SDS011;10304;51.074;13.754;2024-01-30T04:22:44;27.55;;;14.85;;
20290;SDS011;10304;51.074;13.754;2024-01-30T04:25:12;19.70;;;12.65;;
20290;SDS011;10304;51.074;13.754;2024-01-30T04:27:39;21.75;;;13.98;;
20290;SDS011;10304;51.074;13.754;2024-01-30T04:30:06;22.58;;;12.82;;
20290;SDS011;10304;51.074;13.754;2024-01-30T04:32:33;21.92;;;13.13;;
20290;SDS011;10304;51.074;13.754;2024-01-30T04:35:01;24.02;;;14.07;;
20290;SDS011;10304;51.074;13.754;2024-01-30T04:37:32;21.30;;;13.82;;
20290;SDS011;10304;51.074;13.754;2024-01-30T04:39:58;22.75;;;13.75;;
20290;SDS011;10304;51.074;13.754;2024-01-30T04:42:25;23.38;;;13.38;;
20290;SDS011;10304;51.074;13.754;2024-01-30T04:44:52;23.80;;;13.57;;
20290;SDS011;10304;51.074;13.754;2024-01-30T04:47:19;23.80;;;13.15;;
20290;SDS011;10304;51.074;13.754;2024-01-30T04:49:46;23.30;;;14.50;;
20290;SDS011;10304;51.074;13.754;2024-01-30T04:52:12;24.35;;;13.73;;
20290;SDS011;10304;51.074;13.754;2024-01-30T04:54:39;22.58;;;13.30;;
20290;SDS011;10304;51.074;13.754;2024-01-30T04:57:06;23.67;;;13.48;;
20290;SDS011;10304;51.074;13.754;2024-01-30T04:59:35;21.23;;;12.85;;
20290;SDS011;10304;51.074;13.754;2024-01-30T05:02:03;25.15;;;14.43;;
20290;SDS011;10304;51.074;13.754;2024-01-30T05:04:30;22.60;;;13.52;;
20290;SDS011;10304;51.074;13.754;2024-01-30T05:06:56;23.40;;;13.73;;
20290;SDS011;10304;51.074;13.754;2024-01-30T05:09:23;20.63;;;13.55;;
20290;SDS011;10304;51.074;13.754;2024-01-30T05:11:50;23.63;;;14.15;;
20290;SDS011;10304;51.074;13.754;2024-01-30T05:14:17;23.35;;;13.45;;
20290;SDS011;10304;51.074;13.754;2024-01-30T05:16:44;22.50;;;13.85;;
20290;SDS011;10304;51.074;13.754;2024-01-30T05:19:13;20.92;;;13.57;;
20290;SDS011;10304;51.074;13.754;2024-01-30T05:21:40;20.73;;;13.18;;
20290;SDS011;10304;51.074;13.754;2024-01-30T05:24:07;23.38;;;14.30;;
20290;SDS011;10304;51.074;13.754;2024-01-30T05:26:36;22.10;;;12.50;;
20290;SDS011;10304;51.074;13.754;2024-01-30T05:29:02;21.70;;;12.90;;
20290;SDS011;10304;51.074;13.754;2024-01-30T05:31:30;22.63;;;14.20;;
20290;SDS011;10304;51.074;13.754;2024-01-30T05:33:57;22.05;;;13.18;;
20290;SDS011;10304;51.074;13.754;2024-01-30T05:36:24;22.33;;;12.80;;
20290;SDS011;10304;51.074;13.754;2024-01-30T05:38:50;20.92;;;12.85;;
20290;SDS011;10304;51.074;13.754;2024-01-30T05:41:17;23.38;;;13.80;;
20290;SDS011;10304;51.074;13.754;2024-01-30T05:43:44;23.30;;;12.85;;
20290;SDS011;10304;51.074;13.754;2024-01-30T05:46:11;22.55;;;13.23;;
20290;SDS011;10304;51.074;13.754;2024-01-30T05:48:37;25.73;;;13.60;;
20290;SDS011;10304;51.074;13.754;2024-01-30T05:51:04;27.50;;;14.38;;
20290;SDS011;10304;51.074;13.754;2024-01-30T05:53:33;24.90;;;13.55;;
20290;SDS011;10304;51.074;13.754;2024-01-30T05:56:03;22.20;;;13.25;;
20290;SDS011;10304;51.074;13.754;2024-01-30T05:58:30;25.27;;;13.63;;
20290;SDS011;10304;51.074;13.754;2024-01-30T06:00:59;21.15;;;13.15;;
20290;SDS011;10304;51.074;13.754;2024-01-30T06:03:26;21.15;;;13.75;;
20290;SDS011;10304;51.074;13.754;2024-01-30T06:05:53;23.05;;;13.55;;
20290;SDS011;10304;51.074;13.754;2024-01-30T06:08:20;19.52;;;12.70;;
20290;SDS011;10304;51.074;13.754;2024-01-30T06:10:46;23.17;;;13.30;;
20290;SDS011;10304;51.074;13.754;2024-01-30T06:13:14;21.00;;;14.00;;
20290;SDS011;10304;51.074;13.754;2024-01-30T06:15:41;22.17;;;13.50;;
20290;SDS011;10304;51.074;13.754;2024-01-30T06:18:07;24.25;;;13.75;;
20290;SDS011;10304;51.074;13.754;2024-01-30T06:20:34;24.05;;;13.73;;
20290;SDS011;10304;51.074;13.754;2024-01-30T06:23:02;27.70;;;15.55;;
20290;SDS011;10304;51.074;13.754;2024-01-30T06:25:28;28.20;;;14.85;;
20290;SDS011;10304;51.074;13.754;2024-01-30T06:27:55;25.02;;;13.90;;
20290;SDS011;10304;51.074;13.754;2024-01-30T06:30:22;24.85;;;13.95;;
20290;SDS011;10304;51.074;13.754;2024-01-30T06:32:49;22.02;;;13.63;;
20290;SDS011;10304;51.074;13.754;2024-01-30T06:35:15;24.40;;;13.73;;
20290;SDS011;10304;51.074;13.754;2024-01-30T06:37:43;19.52;;;12.90;;
20290;SDS011;10304;51.074;13.754;2024-01-30T06:40:10;22.58;;;14.18;;
20290;SDS011;10304;51.074;13.754;2024-01-30T06:42:37;19.38;;;13.18;;
20290;SDS011;10304;51.074;13.754;2024-01-30T06:45:04;22.45;;;13.77;;
20290;SDS011;10304;51.074;13.754;2024-01-30T06:47:31;23.23;;;13.77;;
20290;SDS011;10304;51.074;13.754;2024-01-30T06:49:58;23.40;;;13.55;;
20290;SDS011;10304;51.074;13.754;2024-01-30T06:52:25;20.08;;;13.32;;
20290;SDS011;10304;51.074;13.754;2024-01-30T06:54:52;21.88;;;13.88;;
20290;SDS011;10304;51.074;13.754;2024-01-30T06:57:19;21.45;;;13.05;;
20290;SDS011;10304;51.074;13.754;2024-01-30T06:59:45;21.50;;;13.32;;
20290;SDS011;10304;51.074;13.754;2024-01-30T07:02:13;24.20;;;13.77;;
20290;SDS011;10304;51.074;13.754;2024-01-30T07:04:39;24.17;;;12.90;;
20290;SDS011;10304;51.074;13.754;2024-01-30T07:07:12;21.88;;;13.45;;
20290;SDS011;10304;51.074;13.754;2024-01-30T07:09:41;21.17;;;12.82;;
20290;SDS011;10304;51.074;13.754;2024-01-30T07:12:08;23.40;;;13.32;;
20290;SDS011;10304;51.074;13.754;2024-01-30T07:14:34;21.75;;;13.13;;
20290;SDS011;10304;51.074;13.754;2024-01-30T07:17:01;21.65;;;13.30;;
20290;SDS011;10304;51.074;13.754;2024-01-30T07:19:28;20.13;;;13.32;;
20290;SDS011;10304;51.074;13.754;2024-01-30T07:21:55;22.95;;;13.15;;
20290;SDS011;10304;51.074;13.754;2024-01-30T07:24:22;23.10;;;13.73;;
20290;SDS011;10304;51.074;13.754;2024-01-30T07:26:48;23.42;;;13.40;;
20290;SDS011;10304;51.074;13.754;2024-01-30T07:29:15;21.67;;;13.02;;
20290;SDS011;10304;51.074;13.754;2024-01-30T07:31:42;22.02;;;13.40;;
20290;SDS011;10304;51.074;13.754;2024-01-30T07:34:09;21.77;;;13.35;;
20290;SDS011;10304;51.074;13.754;2024-01-30T07:36:36;22.67;;;13.23;;
20290;SDS011;10304;51.074;13.754;2024-01-30T07:39:04;19.50;;;13.07;;
20290;SDS011;10304;51.074;13.754;2024-01-30T07:41:31;20.80;;;12.82;;
20290;SDS011;10304;51.074;13.754;2024-01-30T07:43:58;22.73;;;13.32;;
20290;SDS011;10304;51.074;13.754;2024-01-30T07:46:27;24.27;;;14.07;;
20290;SDS011;10304;51.074;13.754;2024-01-30T07:48:53;28.83;;;16.85;;
20290;SDS011;10304;51.074;13.754;2024-01-30T07:51:22;22.27;;;14.10;;
20290;SDS011;10304;51.074;13.754;2024-01-30T07:53:49;21.75;;;12.55;;
20290;SDS011;10304;51.074;13.754;2024-01-30T07:56:15;22.20;;;13.18;;
20290;SDS011;10304;51.074;13.754;2024-01-30T07:58:42;19.38;;;12.07;;
20290;SDS011;10304;51.074;13.754;2024-01-30T08:01:09;22.33;;;12.35;;
20290;SDS011;10304;51.074;13.754;2024-01-30T08:03:36;19.45;;;12.52;;
20290;SDS011;10304;51.074;13.754;2024-01-30T08:06:06;21.23;;;12.35;;
20290;SDS011;10304;51.074;13.754;2024-01-30T08:08:33;20.95;;;12.57;;
20290;SDS011;10304;51.074;13.754;2024-01-30T08:10:59;18.00;;;11.93;;
20290;SDS011;10304;51.074;13.754;2024-01-30T08:13:27;21.63;;;12.48;;
20290;SDS011;10304;51.074;13.754;2024-01-30T08:15:54;21.58;;;12.07;;
20290;SDS011;10304;51.074;13.754;2024-01-30T08:18:20;18.13;;;11.80;;
20290;SDS011;10304;51.074;13.754;2024-01-30T08:20:47;19.20;;;11.60;;
20290;SDS011;10304;51.074;13.754;2024-01-30T08:23:15;19.05;;;11.63;;
20290;SDS011;10304;51.074;13.754;2024-01-30T08:25:42;19.05;;;11.85;;
20290;SDS011;10304;51.074;13.754;2024-01-30T08:28:08;18.83;;;12.13;;
20290;SDS011;10304;51.074;13.754;2024-01-30T08:30:36;19.17;;;12.05;;
20290;SDS011;10304;51.074;13.754;2024-01-30T08:33:05;16.92;;;11.30;;
20290;SDS011;10304;51.074;13.754;2024-01-30T08:35:32;20.10;;;11.82;;
20290;SDS011;10304;51.074;13.754;2024-01-30T08:38:00;21.23;;;12.55;;
20290;SDS011;10304;51.074;13.754;2024-01-30T08:40:26;19.02;;;12.10;;
20290;SDS011;10304;51.074;13.754;2024-01-30T08:42:55;22.27;;;12.10;;
20290;SDS011;10304;51.074;13.754;2024-01-30T08:45:22;18.85;;;11.45;;
20290;SDS011;10304;51.074;13.754;2024-01-30T08:47:48;20.10;;;12.02;;
20290;SDS011;10304;51.074;13.754;2024-01-30T08:50:15;18.08;;;10.85;;
20290;SDS011;10304;51.074;13.754;2024-01-30T08:52:45;21.17;;;12.38;;
20290;SDS011;10304;51.074;13.754;2024-01-30T08:55:14;16.67;;;10.98;;
20290;SDS011;10304;51.074;13.754;2024-01-30T08:57:40;21.48;;;12.20;;
20290;SDS011;10304;51.074;13.754;2024-01-30T09:00:07;17.33;;;11.80;;
20290;SDS011;10304;51.074;13.754;2024-01-30T09:02:36;19.77;;;13.00;;
20290;SDS011;10304;51.074;13.754;2024-01-30T09:05:03;18.90;;;11.52;;
20290;SDS011;10304;51.074;13.754;2024-01-30T09:07:30;21.55;;;12.40;;
20290;SDS011;10304;51.074;13.754;2024-01-30T09:09:57;17.58;;;11.30;;
20290;SDS011;10304;51.074;13.754;2024-01-30T09:12:24;18.25;;;11.55;;
20290;SDS011;10304;51.074;13.754;2024-01-30T09:14:51;17.13;;;11.55;;
20290;SDS011;10304;51.074;13.754;2024-01-30T09:17:17;19.48;;;12.05;;
20290;SDS011;10304;51.074;13.754;2024-01-30T09:19:46;16.08;;;11.27;;
20290;SDS011;10304;51.074;13.754;2024-01-30T09:22:13;19.52;;;12.27;;
20290;SDS011;10304;51.074;13.754;2024-01-30T09:24:40;20.08;;;12.18;;
20290;SDS011;10304;51.074;13.754;2024-01-30T09:27:07;18.90;;;12.02;;
20290;SDS011;10304;51.074;13.754;2024-01-30T09:29:34;19.98;;;12.25;;
20290;SDS011;10304;51.074;13.754;2024-01-30T09:32:03;20.35;;;12.35;;
20290;SDS011;10304;51.074;13.754;2024-01-30T09:34:30;16.58;;;11.60;;
20290;SDS011;10304;51.074;13.754;2024-01-30T09:36:58;16.23;;;11.90;;
20290;SDS011;10304;51.074;13.754;2024-01-30T09:39:26;18.23;;;12.52;;
20290;SDS011;10304;51.074;13.754;2024-01-30T09:42:04;17.35;;;11.80;;
20290;SDS011;10304;51.074;13.754;2024-01-30T09:44:37;19.58;;;11.20;;
20290;SDS011;10304;51.074;13.754;2024-01-30T09:47:08;19.65;;;11.93;;
20290;SDS011;10304;51.074;13.754;2024-01-30T09:49:35;21.88;;;12.52;;
20290;SDS011;10304;51.074;13.754;2024-01-30T09:52:02;16.85;;;11.25;;
20290;SDS011;10304;51.074;13.754;2024-01-30T09:54:31;19.85;;;11.55;;
20290;SDS011;10304;51.074;13.754;2024-01-30T09:57:02;18.05;;;11.35;;
20290;SDS011;10304;51.074;13.754;2024-01-30T09:59:29;17.13;;;11.95;;
20290;SDS011;10304;51.074;13.754;2024-01-30T10:01:56;16.83;;;12.35;;
20290;SDS011;10304;51.074;13.754;2024-01-30T10:04:24;19.17;;;12.80;;
20290;SDS011;10304;51.074;13.754;2024-01-30T10:06:51;19.30;;;12.75;;
20290;SDS011;10304;51.074;13.754;2024-01-30T10:09:17;17.02;;;11.90;;
20290;SDS011;10304;51.074;13.754;2024-01-30T10:11:44;18.35;;;11.70;;
20290;SDS011;10304;51.074;13.754;2024-01-30T10:14:11;18.70;;;12.30;;
20290;SDS011;10304;51.074;13.754;2024-01-30T10:16:38;18.77;;;12.50;;
20290;SDS011;10304;51.074;13.754;2024-01-30T10:19:05;19.30;;;12.52;;
20290;SDS011;10304;51.074;13.754;2024-01-30T10:21:32;16.95;;;12.13;;
20290;SDS011;10304;51.074;13.754;2024-01-30T10:23:59;16.50;;;11.65;;
20290;SDS011;10304;51.074;13.754;2024-01-30T10:26:26;20.25;;;12.45;;
20290;SDS011;10304;51.074;13.754;2024-01-30T10:28:55;18.95;;;12.48;;
20290;SDS011;10304;51.074;13.754;2024-01-30T10:31:22;20.70;;;13.45;;
20290;SDS011;10304;51.074;13.754;2024-01-30T10:33:51;18.13;;;12.40;;
20290;SDS011;10304;51.074;13.754;2024-01-30T10:36:28;17.38;;;12.40;;
20290;SDS011;10304;51.074;13.754;2024-01-30T10:38:59;18.73;;;13.07;;
20290;SDS011;10304;51.074;13.754;2024-01-30T10:41:28;17.95;;;12.77;;
20290;SDS011;10304;51.074;13.754;2024-01-30T10:44:02;18.25;;;12.43;;
20290;SDS011;10304;51.074;13.754;2024-01-30T10:46:34;18.67;;;12.40;;
20290;SDS011;10304;51.074;13.754;2024-01-30T10:49:04;15.68;;;11.82;;
20290;SDS011;10304;51.074;13.754;2024-01-30T10:51:31;16.13;;;11.77;;
20290;SDS011;10304;51.074;13.754;2024-01-30T10:53:58;18.45;;;12.35;;
20290;SDS011;10304;51.074;13.754;2024-01-30T10:56:26;18.73;;;12.45;;
20290;SDS011;10304;51.074;13.754;2024-01-30T10:58:54;16.83;;;11.90;;
20290;SDS011;10304;51.074;13.754;2024-01-30T11:01:24;17.75;;;12.02;;
20290;SDS011;10304;51.074;13.754;2024-01-30T11:03:52;20.15;;;12.15;;
20290;SDS011;10304;51.074;13.754;2024-01-30T11:06:28;21.40;;;12.63;;
20290;SDS011;10304;51.074;13.754;2024-01-30T11:09:01;17.15;;;12.15;;
20290;SDS011;10304;51.074;13.754;2024-01-30T11:11:52;19.23;;;12.80;;
20290;SDS011;10304;51.074;13.754;2024-01-30T11:14:29;17.17;;;11.95;;
20290;SDS011;10304;51.074;13.754;2024-01-30T11:16:57;20.23;;;13.13;;
20290;SDS011;10304;51.074;13.754;2024-01-30T11:19:25;17.77;;;12.88;;
20290;SDS011;10304;51.074;13.754;2024-01-30T11:21:53;20.90;;;12.52;;
20290;SDS011;10304;51.074;13.754;2024-01-30T11:24:20;17.85;;;12.35;;
20290;SDS011;10304;51.074;13.754;2024-01-30T11:26:56;18.17;;;12.60;;
20290;SDS011;10304;51.074;13.754;2024-01-30T11:29:27;20.65;;;13.10;;
20290;SDS011;10304;51.074;13.754;2024-01-30T11:31:55;18.08;;;13.25;;
20290;SDS011;10304;51.074;13.754;2024-01-30T11:34:25;21.55;;;13.30;;
20290;SDS011;10304;51.074;13.754;2024-01-30T11:36:54;21.08;;;12.07;;
20290;SDS011;10304;51.074;13.754;2024-01-30T11:39:25;20.65;;;13.85;;
20290;SDS011;10304;51.074;13.754;2024-01-30T11:41:53;20.35;;;12.70;;
20290;SDS011;10304;51.074;13.754;2024-01-30T11:44:21;18.10;;;12.57;;
20290;SDS011;10304;51.074;13.754;2024-01-30T11:46:51;20.13;;;13.38;;
20290;SDS011;10304;51.074;13.754;2024-01-30T11:49:18;18.70;;;12.38;;
20290;SDS011;10304;51.074;13.754;2024-01-30T11:51:45;21.20;;;13.48;;
20290;SDS011;10304;51.074;13.754;2024-01-30T11:54:15;19.52;;;12.07;;
20290;SDS011;10304;51.074;13.754;2024-01-30T11:56:42;19.08;;;12.50;;
20290;SDS011;10304;51.074;13.754;2024-01-30T11:59:09;22.42;;;13.57;;
20290;SDS011;10304;51.074;13.754;2024-01-30T12:01:37;20.25;;;14.07;;
20290;SDS011;10304;51.074;13.754;2024-01-30T12:04:04;18.55;;;12.73;;
20290;SDS011;10304;51.074;13.754;2024-01-30T12:06:36;19.08;;;13.35;;
20290;SDS011;10304;51.074;13.754;2024-01-30T12:09:03;20.02;;;12.75;;
20290;SDS011;10304;51.074;13.754;2024-01-30T12:11:30;17.80;;;12.55;;
20290;SDS011;10304;51.074;13.754;2024-01-30T12:13:57;22.10;;;13.98;;
20290;SDS011;10304;51.074;13.754;2024-01-30T12:16:24;21.58;;;13.73;;
20290;SDS011;10304;51.074;13.754;2024-01-30T12:18:58;20.25;;;13.20;;
20290;SDS011;10304;51.074;13.754;2024-01-30T12:21:27;18.98;;;12.88;;
20290;SDS011;10304;51.074;13.754;2024-01-30T12:23:56;21.08;;;13.48;;
20290;SDS011;10304;51.074;13.754;2024-01-30T12:26:24;20.85;;;12.77;;
20290;SDS011;10304;51.074;13.754;2024-01-30T12:28:55;20.98;;;13.30;;
20290;SDS011;10304;51.074;13.754;2024-01-30T12:31:25;21.25;;;13.40;;
20290;SDS011;10304;51.074;13.754;2024-01-30T12:33:53;21.67;;;13.23;;
20290;SDS011;10304;51.074;13.754;2024-01-30T12:36:21;20.02;;;12.60;;
20290;SDS011;10304;51.074;13.754;2024-01-30T12:38:49;21.77;;;12.90;;
20290;SDS011;10304;51.074;13.754;2024-01-30T12:41:16;19.92;;;12.70;;
20290;SDS011;10304;51.074;13.754;2024-01-30T12:43:43;21.15;;;13.25;;
20290;SDS011;10304;51.074;13.754;2024-01-30T12:46:10;20.95;;;12.98;;
20290;SDS011;10304;51.074;13.754;2024-01-30T12:48:37;21.02;;;13.35;;
20290;SDS011;10304;51.074;13.754;2024-01-30T12:51:04;21.10;;;13.75;;
20290;SDS011;10304;51.074;13.754;2024-01-30T12:53:31;20.30;;;12.65;;
20290;SDS011;10304;51.074;13.754;2024-01-30T12:55:58;20.13;;;13.18;;
20290;SDS011;10304;51.074;13.754;2024-01-30T12:58:25;19.73;;;12.82;;
20290;SDS011;10304;51.074;13.754;2024-01-30T13:00:52;22.63;;;13.05;;
20290;SDS011;10304;51.074;13.754;2024-01-30T13:03:20;18.73;;;12.85;;
20290;SDS011;10304;51.074;13.754;2024-01-30T13:05:48;20.73;;;13.18;;
20290;SDS011;10304;51.074;13.754;2024-01-30T13:08:14;22.63;;;13.85;;
20290;SDS011;10304;51.074;13.754;2024-01-30T13:10:41;21.50;;;13.93;;
20290;SDS011;10304;51.074;13.754;2024-01-30T13:13:09;23.42;;;14.68;;
20290;SDS011;10304;51.074;13.754;2024-01-30T13:15:45;21.38;;;13.65;;
20290;SDS011;10304;51.074;13.754;2024-01-30T13:18:13;22.50;;;14.18;;
20290;SDS011;10304;51.074;13.754;2024-01-30T13:20:39;19.67;;;13.10;;
20290;SDS011;10304;51.074;13.754;2024-01-30T13:23:06;18.85;;;13.10;;
20290;SDS011;10304;51.074;13.754;2024-01-30T13:25:33;20.58;;;13.55;;
20290;SDS011;10304;51.074;13.754;2024-01-30T13:28:00;21.90;;;14.18;;
20290;SDS011;10304;51.074;13.754;2024-01-30T13:30:27;19.75;;;12.93;;
20290;SDS011;10304;51.074;13.754;2024-01-30T13:32:54;20.85;;;13.48;;
20290;SDS011;10304;51.074;13.754;2024-01-30T13:35:21;19.33;;;13.38;;
20290;SDS011;10304;51.074;13.754;2024-01-30T13:37:48;20.75;;;13.88;;
20290;SDS011;10304;51.074;13.754;2024-01-30T13:40:14;21.95;;;14.50;;
20290;SDS011;10304;51.074;13.754;2024-01-30T13:42:42;22.45;;;13.80;;
20290;SDS011;10304;51.074;13.754;2024-01-30T13:45:09;19.85;;;13.85;;
20290;SDS011;10304;51.074;13.754;2024-01-30T13:47:37;20.60;;;14.80;;
20290;SDS011;10304;51.074;13.754;2024-01-30T13:50:04;20.45;;;13.70;;
20290;SDS011;10304;51.074;13.754;2024-01-30T13:52:32;19.27;;;13.75;;
20290;SDS011;10304;51.074;13.754;2024-01-30T13:55:09;20.55;;;14.10;;
20290;SDS011;10304;51.074;13.754;2024-01-30T13:57:37;22.52;;;15.60;;
20290;SDS011;10304;51.074;13.754;2024-01-30T14:00:05;20.02;;;14.15;;
20290;SDS011;10304;51.074;13.754;2024-01-30T14:02:33;23.52;;;14.07;;
20290;SDS011;10304;51.074;13.754;2024-01-30T14:05:00;20.88;;;13.35;;
20290;SDS011;10304;51.074;13.754;2024-01-30T14:07:27;22.13;;;14.55;;
20290;SDS011;10304;51.074;13.754;2024-01-30T14:09:54;21.35;;;14.63;;